Time;durP1;ratioP1;P1;durP2;ratioP2;P2;SDS_P1;SDS_P2;PMS_P1;PMS_P2;Temp;Humidity;BMP_temperature;BMP_pressure;BME280_temperature;BME280_humidity;BME280_pressure;Samples;Min_cycle;Max_cycle;Signal;HPM_P1;HPM_P2
2023/07/04 00:00:31;;;;;;;3.85;1.73;;;;;;;17.02;64.82;100171.69;2090216;28;20037;-71
2023/07/04 00:01:34;;;;;;;3.75;1.60;;;;;;;17.06;64.53;100186.22;2090313;28;20037;-71
2023/07/04 00:02:35;;;;;;;9.70;1.92;;;;;;;17.06;64.59;100172.66;2090426;28;20784;-71
2023/07/04 00:03:40;;;;;;;5.57;1.98;;;;;;;17.00;64.58;100173.97;2090332;28;20044;-71
2023/07/04 00:04:41;;;;;;;3.50;1.58;;;;;;;17.04;64.41;100174.88;2090671;28;20146;-71
2023/07/04 00:05:48;;;;;;;6.45;2.00;;;;;;;17.01;64.49;100168.19;2090644;28;20044;-71
2023/07/04 00:06:50;;;;;;;5.28;1.58;;;;;;;17.03;64.64;100162.44;2098680;28;20044;-71
2023/07/04 00:07:52;;;;;;;5.40;1.90;;;;;;;17.07;64.31;100166.88;2098371;28;20040;-71
2023/07/04 00:08:53;;;;;;;5.78;1.98;;;;;;;17.06;64.14;100170.72;2081854;28;20057;-71
2023/07/04 00:09:59;;;;;;;4.53;1.60;;;;;;;17.02;64.53;100166.25;2091418;28;20095;-72
2023/07/04 00:11:06;;;;;;;5.07;1.50;;;;;;;16.96;64.52;100162.16;2105824;28;20158;-72
2023/07/04 00:12:11;;;;;;;4.18;1.70;;;;;;;16.95;64.66;100166.00;2098174;28;20044;-72
2023/07/04 00:13:15;;;;;;;7.55;2.15;;;;;;;16.94;64.62;100164.41;2098655;28;20100;-71
2023/07/04 00:14:17;;;;;;;4.80;1.83;;;;;;;16.96;64.51;100162.97;2098579;28;20044;-72
2023/07/04 00:15:19;;;;;;;6.18;1.75;;;;;;;16.97;64.42;100164.56;2090246;28;20037;-71
2023/07/04 00:16:20;;;;;;;4.65;1.75;;;;;;;16.98;64.08;100170.78;2081801;28;20044;-72
2023/07/04 00:17:25;;;;;;;5.20;1.60;;;;;;;16.99;64.11;100167.75;2082062;28;20034;-72
2023/07/04 00:18:27;;;;;;;5.05;1.45;;;;;;;17.02;64.01;100171.69;2090069;28;20033;-72
2023/07/04 00:19:34;;;;;;;3.55;1.63;;;;;;;17.00;63.91;100173.97;2082391;28;20144;-73
2023/07/04 00:20:37;;;;;;;3.67;1.73;;;;;;;17.03;63.85;100179.53;2082738;28;20033;-72
2023/07/04 00:21:42;;;;;;;6.32;1.70;;;;;;;17.04;63.86;100180.31;2083105;28;20126;-72
2023/07/04 00:22:46;;;;;;;4.00;1.67;;;;;;;17.07;63.68;100171.50;2090511;28;20156;-72
2023/07/04 00:23:52;;;;;;;5.10;1.70;;;;;;;17.05;63.78;100179.19;2090111;28;20839;-72
2023/07/04 00:24:57;;;;;;;4.65;1.80;;;;;;;17.02;63.91;100177.13;2091114;28;20072;-71
2023/07/04 00:25:58;;;;;;;5.60;1.90;;;;;;;16.97;64.02;100169.97;2098414;28;20152;-72
2023/07/04 00:27:03;;;;;;;3.70;1.95;;;;;;;17.01;63.97;100170.91;2090597;28;20033;-72
2023/07/04 00:28:08;;;;;;;5.35;2.10;;;;;;;17.01;63.73;100180.97;2097934;28;20051;-72
2023/07/04 00:29:15;;;;;;;4.93;2.42;;;;;;;16.98;63.92;100170.78;2106683;28;20143;-72
2023/07/04 00:30:19;;;;;;;2.42;1.63;;;;;;;16.99;63.75;100167.75;2107428;28;20035;-71
2023/07/04 00:31:26;;;;;;;3.05;1.58;;;;;;;16.99;63.69;100166.91;2106569;28;20028;-71
2023/07/04 00:32:31;;;;;;;4.03;1.70;;;;;;;16.90;63.97;100170.50;2091350;28;20911;-72
2023/07/04 00:33:36;;;;;;;4.45;1.73;;;;;;;16.83;64.38;100175.66;2098503;28;20068;-72
2023/07/04 00:34:45;;;;;;;4.57;2.25;;;;;;;16.81;64.33;100177.91;2098930;28;20842;-71
2023/07/04 00:35:47;;;;;;;3.88;1.70;;;;;;;16.77;64.57;100179.72;2089826;28;20119;-71
2023/07/04 00:36:50;;;;;;;4.47;1.58;;;;;;;16.80;64.38;100181.78;2090566;28;20041;-71
2023/07/04 00:37:55;;;;;;;6.15;1.70;;;;;;;16.80;64.51;100178.22;2107043;28;20886;-71
2023/07/04 00:38:57;;;;;;;7.03;1.70;;;;;;;16.82;64.29;100179.50;2098754;28;20036;-71
2023/07/04 00:40:05;;;;;;;4.95;1.58;;;;;;;16.84;64.12;100182.69;2090192;28;20071;-70
2023/07/04 00:41:10;;;;;;;5.22;1.52;;;;;;;16.81;64.41;100188.00;2083817;28;20046;-71
2023/07/04 00:42:11;;;;;;;4.53;1.70;;;;;;;16.79;64.22;100174.72;2090797;28;20176;-71
2023/07/04 00:43:18;;;;;;;2.95;1.40;;;;;;;16.76;64.45;100180.81;2106485;28;20025;-71
2023/07/04 00:44:24;;;;;;;5.65;1.73;;;;;;;16.75;64.37;100195.53;2090758;28;20046;-72
2023/07/04 00:45:27;;;;;;;4.88;2.05;;;;;;;16.72;64.44;100189.94;2083108;28;20033;-72
2023/07/04 00:46:41;;;;;;;5.82;2.08;;;;;;;16.73;64.32;100186.88;2082345;28;20764;-72
2023/07/04 00:48:05;;;;;;;5.05;1.90;;;;;;;16.77;64.27;100193.28;2100671;28;20175;-73
2023/07/04 00:49:14;;;;;;;5.25;2.03;;;;;;;16.82;64.31;100198.50;2100481;28;20862;-72
2023/07/04 00:50:19;;;;;;;4.25;1.45;;;;;;;16.85;64.13;100186.19;2098615;28;20151;-72
2023/07/04 00:51:22;;;;;;;5.45;1.70;;;;;;;16.85;64.33;100191.63;2074317;28;21318;-72
2023/07/04 00:52:27;;;;;;;4.32;1.80;;;;;;;16.77;64.18;100192.47;2074432;28;20041;-71
2023/07/04 00:53:35;;;;;;;4.10;1.70;;;;;;;16.77;64.14;100197.91;2091206;28;20029;-71
2023/07/04 00:54:40;;;;;;;5.68;1.90;;;;;;;16.72;64.32;100190.72;2098357;28;20851;-71
2023/07/04 00:55:46;;;;;;;5.93;1.67;;;;;;;16.77;64.08;100204.16;2082684;28;20136;-71
2023/07/04 00:56:58;;;;;;;3.10;1.65;;;;;;;16.77;64.47;100193.28;2083629;28;20041;-73
2023/07/04 00:58:03;;;;;;;4.13;1.73;;;;;;;16.73;64.41;100189.59;2100290;28;20037;-72
2023/07/04 00:59:05;;;;;;;7.13;1.77;;;;;;;16.69;64.11;100194.88;2106744;28;20029;-71
2023/07/04 01:00:16;;;;;;;5.30;1.63;;;;;;;16.69;64.27;100197.59;2087661;28;20868;-71
2023/07/04 01:01:20;;;;;;;4.97;1.88;;;;;;;16.73;64.00;100199.66;2069485;28;20038;-72
2023/07/04 01:02:23;;;;;;;3.83;1.80;;;;;;;16.72;64.02;100193.44;2073756;28;20042;-72
2023/07/04 01:03:28;;;;;;;8.32;2.00;;;;;;;16.71;64.10;100200.00;2083036;28;20038;-72
2023/07/04 01:04:31;;;;;;;6.28;2.47;;;;;;;16.69;64.13;100192.16;2074229;28;20187;-72
2023/07/04 01:05:43;;;;;;;3.78;1.80;;;;;;;16.68;64.31;100197.94;2082382;28;20038;-72
2023/07/04 01:06:49;;;;;;;3.88;1.88;;;;;;;16.69;64.27;100203.03;2083107;28;20770;-72
2023/07/04 01:08:11;;;;;;;4.80;1.60;;;;;;;16.60;64.41;100199.56;2082811;28;20080;-72
2023/07/04 01:09:17;;;;;;;6.57;2.55;;;;;;;16.58;64.23;100201.00;2083755;28;20092;-72
2023/07/04 01:10:32;;;;;;;3.70;1.50;;;;;;;16.57;64.25;100191.28;2076005;28;20037;-72
2023/07/04 01:11:42;;;;;;;7.88;1.77;;;;;;;16.50;64.17;100189.09;2085116;28;20061;-71
2023/07/04 01:12:49;;;;;;;5.03;1.90;;;;;;;16.58;64.31;100195.56;2098224;28;20029;-72
2023/07/04 01:13:50;;;;;;;4.95;1.63;;;;;;;16.61;64.34;100194.91;2089922;28;20030;-72
2023/07/04 01:14:53;;;;;;;5.40;1.58;;;;;;;16.62;64.64;100196.53;2081845;28;20837;-72
2023/07/04 01:15:58;;;;;;;8.23;1.85;;;;;;;16.61;64.56;100192.22;2082861;28;20888;-72
2023/07/04 01:16:59;;;;;;;5.72;1.90;;;;;;;16.62;64.42;100193.81;2082239;28;20026;-72
2023/07/04 01:18:04;;;;;;;5.75;1.88;;;;;;;16.64;64.22;100195.06;2081961;28;20068;-71
2023/07/04 01:19:08;;;;;;;4.03;1.50;;;;;;;16.64;64.14;100189.63;2089974;28;20132;-72
2023/07/04 01:20:16;;;;;;;6.45;1.77;;;;;;;16.63;63.97;100189.97;2089662;28;20918;-72
2023/07/04 01:21:22;;;;;;;4.22;1.50;;;;;;;16.63;64.09;100187.25;2089813;28;20033;-72
2023/07/04 01:22:41;;;;;;;2.60;1.75;;;;;;;16.63;64.02;100188.03;2083473;28;20847;-72
2023/07/04 01:24:03;;;;;;;5.18;1.60;;;;;;;16.61;64.10;100193.03;2098599;28;20344;-72
2023/07/04 01:25:20;;;;;;;6.05;1.70;;;;;;;16.58;64.09;100185.53;2089788;28;20033;-72
2023/07/04 01:26:46;;;;;;;4.25;1.98;;;;;;;16.60;64.09;100185.19;2094737;28;20041;-72
2023/07/04 01:27:59;;;;;;;3.50;1.63;;;;;;;16.61;64.17;100190.31;2106747;28;20044;-73
2023/07/04 01:29:09;;;;;;;5.40;1.70;;;;;;;16.62;63.85;100185.69;2106938;28;20051;-71
2023/07/04 01:30:12;;;;;;;5.80;2.13;;;;;;;16.59;63.65;100189.84;2090634;28;20025;-71
2023/07/04 01:31:14;;;;;;;8.93;2.05;;;;;;;16.62;63.90;100191.09;2073895;28;20038;-71
2023/07/04 01:32:19;;;;;;;6.30;1.98;;;;;;;16.59;64.01;100191.75;2074524;28;20037;-71
2023/07/04 01:33:25;;;;;;;3.38;2.00;;;;;;;16.59;64.00;100191.75;2081796;28;20038;-71
2023/07/04 01:34:27;;;;;;;4.60;1.80;;;;;;;16.57;63.95;100189.34;2082591;28;20042;-71
2023/07/04 01:35:33;;;;;;;5.03;2.03;;;;;;;16.56;63.98;100192.41;2082565;28;20092;-71
2023/07/04 01:36:38;;;;;;;4.35;1.95;;;;;;;16.55;64.00;100188.09;2090756;28;20045;-72
2023/07/04 01:37:42;;;;;;;5.78;1.80;;;;;;;16.59;64.12;100191.75;2098622;28;20212;-71
2023/07/04 01:38:46;;;;;;;8.27;1.88;;;;;;;16.54;64.29;100191.94;2090275;28;20060;-71
2023/07/04 01:39:47;;;;;;;5.15;1.70;;;;;;;16.54;64.34;100191.94;2098445;28;20080;-71
2023/07/04 01:40:49;;;;;;;8.55;2.03;;;;;;;16.55;64.27;100188.09;2106262;28;20028;-71
2023/07/04 01:41:51;;;;;;;6.35;1.70;;;;;;;16.59;64.06;100186.34;2097688;28;20029;-71
2023/07/04 01:42:53;;;;;;;4.57;1.60;;;;;;;16.56;64.19;100192.41;2081545;28;20042;-71
2023/07/04 01:44:02;;;;;;;4.57;1.98;;;;;;;16.53;64.08;100193.84;2090035;28;20049;-71
2023/07/04 01:45:08;;;;;;;6.57;1.95;;;;;;;16.52;64.36;100191.44;2093035;28;20040;-71
2023/07/04 01:46:12;;;;;;;7.65;1.90;;;;;;;16.52;64.29;100186.03;2084085;28;20207;-71
2023/07/04 01:47:18;;;;;;;5.65;1.83;;;;;;;16.51;64.37;100184.44;2084025;28;20044;-71
2023/07/04 01:48:19;;;;;;;9.85;2.13;;;;;;;16.52;64.66;100183.31;2100890;28;20048;-72
2023/07/04 01:49:21;;;;;;;7.35;2.20;;;;;;;16.52;64.45;100181.41;2107497;28;20060;-72
2023/07/04 01:50:23;;;;;;;9.18;2.55;;;;;;;16.52;64.49;100181.41;2091038;28;20037;-71
2023/07/04 01:51:34;;;;;;;6.45;2.58;;;;;;;16.54;64.46;100184.59;2091589;28;20036;-71
2023/07/04 01:52:36;;;;;;;6.78;1.77;;;;;;;16.52;64.41;100186.84;2092300;28;20057;-71
2023/07/04 01:53:40;;;;;;;6.50;1.75;;;;;;;16.55;64.55;100179.94;2091557;28;20034;-71
2023/07/04 01:54:42;;;;;;;7.45;2.08;;;;;;;16.55;64.52;100185.38;2091604;28;20033;-71
2023/07/04 01:55:48;;;;;;;6.63;2.10;;;;;;;16.52;64.52;100188.75;2083246;28;20034;-70
2023/07/04 01:56:53;;;;;;;9.30;2.17;;;;;;;16.56;64.45;100178.84;2091688;28;20061;-71
2023/07/04 01:57:57;;;;;;;8.43;1.90;;;;;;;16.57;64.62;100188.56;2092953;28;20041;-71
2023/07/04 01:59:02;;;;;;;6.05;1.92;;;;;;;16.51;64.66;100179.03;2099393;28;20063;-71
2023/07/04 02:00:08;;;;;;;5.10;1.75;;;;;;;16.53;64.39;100187.63;2098680;28;20055;-71
2023/07/04 02:01:31;;;;;;;6.47;1.92;;;;;;;16.52;64.55;100184.13;2104769;28;20095;-71
2023/07/04 02:02:32;;;;;;;6.15;1.85;;;;;;;16.43;64.37;100178.75;2082757;28;20180;-71
2023/07/04 02:03:39;;;;;;;5.43;2.00;;;;;;;16.38;64.60;100183.56;2068610;28;20041;-70
2023/07/04 02:04:43;;;;;;;4.72;1.60;;;;;;;16.40;64.40;100179.41;2076195;28;20153;-71
2023/07/04 02:05:45;;;;;;;4.10;1.83;;;;;;;16.45;64.38;100172.97;2074860;28;20070;-71
2023/07/04 02:06:49;;;;;;;4.90;1.77;;;;;;;16.43;64.48;100173.31;2075409;28;20164;-71
2023/07/04 02:07:50;;;;;;;6.25;2.10;;;;;;;16.43;64.49;100167.88;2091236;28;20160;-70
2023/07/04 02:08:53;;;;;;;5.05;1.55;;;;;;;16.35;64.63;100176.84;2090934;28;20161;-71
2023/07/04 02:09:55;;;;;;;7.32;1.90;;;;;;;16.31;64.41;100153.44;2091051;28;20092;-71
2023/07/04 02:10:57;;;;;;;6.63;2.28;;;;;;;16.34;64.55;100163.63;2091375;28;20903;-71
2023/07/04 02:11:59;;;;;;;6.43;2.05;;;;;;;16.31;64.47;100159.66;2099336;28;20040;-71
2023/07/04 02:13:01;;;;;;;11.88;2.08;;;;;;;16.31;64.55;100159.66;2090929;28;20064;-71
2023/07/04 02:14:02;;;;;;;8.27;1.95;;;;;;;16.33;64.37;100170.16;2082534;28;20034;-71
2023/07/04 02:15:07;;;;;;;3.42;1.65;;;;;;;16.31;64.56;100159.66;2075049;28;20039;-71
2023/07/04 02:16:12;;;;;;;5.07;1.85;;;;;;;16.35;64.03;100176.84;2068651;28;20046;-71
2023/07/04 02:17:14;;;;;;;7.68;1.98;;;;;;;16.34;63.89;100172.56;2075259;28;20061;-73
2023/07/04 02:18:16;;;;;;;5.57;1.88;;;;;;;16.34;64.13;100169.84;2083136;28;20122;-73
2023/07/04 02:19:20;;;;;;;7.30;1.98;;;;;;;16.29;63.95;100172.72;2074556;28;20169;-73
2023/07/04 02:20:25;;;;;;;5.68;1.80;;;;;;;16.27;64.40;100168.75;2075981;28;20038;-72
2023/07/04 02:21:27;;;;;;;6.43;1.80;;;;;;;16.23;64.28;100179.47;2083286;28;20030;-73
2023/07/04 02:22:30;;;;;;;5.07;2.10;;;;;;;16.29;64.27;100170.03;2074719;28;20038;-72
2023/07/04 02:23:38;;;;;;;4.32;1.70;;;;;;;16.26;64.12;100173.38;2091971;28;20036;-72
2023/07/04 02:24:40;;;;;;;2.92;1.40;;;;;;;16.25;64.29;100171.81;2099165;28;20025;-69
2023/07/04 02:25:44;;;;;;;6.13;2.10;;;;;;;16.21;64.11;100181.72;2098975;28;20033;-69
2023/07/04 02:26:46;;;;;;;6.20;1.83;;;;;;;16.18;64.00;100166.88;2074600;28;20033;-69
2023/07/04 02:27:50;;;;;;;6.88;1.95;;;;;;;16.21;64.28;100170.88;2078516;28;20049;-69
2023/07/04 02:28:54;;;;;;;6.38;1.80;;;;;;;16.24;64.08;100167.50;2074286;28;20218;-69
2023/07/04 02:29:56;;;;;;;5.63;2.00;;;;;;;16.22;64.04;100170.53;2082960;28;20040;-69
2023/07/04 02:30:59;;;;;;;9.18;1.80;;;;;;;16.25;64.22;100171.00;2090893;28;20803;-69
2023/07/04 02:32:02;;;;;;;5.55;2.25;;;;;;;16.21;63.95;100165.44;2099006;28;20156;-69
2023/07/04 02:33:04;;;;;;;6.10;1.80;;;;;;;16.21;63.94;100165.44;2090599;28;20045;-69
2023/07/04 02:34:07;;;;;;;7.15;1.88;;;;;;;16.21;63.84;100162.72;2083290;28;20052;-69
2023/07/04 02:35:14;;;;;;;6.78;2.03;;;;;;;16.20;64.09;100164.66;2082723;28;20037;-70
2023/07/04 02:36:18;;;;;;;4.43;2.13;;;;;;;16.21;64.01;100170.88;2092063;28;20817;-70
2023/07/04 02:37:20;;;;;;;3.20;1.80;;;;;;;16.24;63.80;100164.78;2090651;28;20087;-70
2023/07/04 02:38:24;;;;;;;4.00;1.63;;;;;;;16.23;63.90;100165.91;2090943;28;20821;-69
2023/07/04 02:39:29;;;;;;;7.97;2.22;;;;;;;16.20;63.60;100167.38;2091276;28;20107;-70
2023/07/04 02:40:34;;;;;;;4.70;2.05;;;;;;;16.24;63.67;100166.72;2091499;28;20081;-70
2023/07/04 02:41:42;;;;;;;7.13;2.20;;;;;;;16.22;63.65;100162.38;2091276;28;20029;-70
2023/07/04 02:42:44;;;;;;;6.68;1.95;;;;;;;16.18;63.69;100166.09;2090854;28;20037;-70
2023/07/04 02:43:46;;;;;;;5.68;2.08;;;;;;;16.19;63.88;100167.69;2082928;28;20108;-71
2023/07/04 02:44:48;;;;;;;4.95;1.88;;;;;;;16.22;63.85;100167.81;2090910;28;20092;-70
2023/07/04 02:45:49;;;;;;;6.40;2.00;;;;;;;16.22;63.89;100167.03;2091010;28;20040;-70
2023/07/04 02:46:51;;;;;;;12.15;2.33;;;;;;;16.25;63.64;100179.16;2091077;28;20031;-70
2023/07/04 02:47:57;;;;;;;5.60;2.10;;;;;;;16.21;63.64;100165.44;2091274;28;20872;-70
2023/07/04 02:48:59;;;;;;;8.38;2.05;;;;;;;16.21;63.87;100165.44;2083079;28;20888;-70
2023/07/04 02:50:01;;;;;;;6.90;1.90;;;;;;;16.20;63.80;100169.25;2074281;28;20048;-70
2023/07/04 02:51:03;;;;;;;5.45;1.80;;;;;;;16.24;63.79;100169.44;2082915;28;20053;-70
2023/07/04 02:52:09;;;;;;;7.63;2.22;;;;;;;16.24;63.64;100164.00;2082544;28;20728;-70
2023/07/04 02:53:10;;;;;;;4.55;1.80;;;;;;;16.25;63.68;100166.38;2084053;28;20173;-70
2023/07/04 02:54:12;;;;;;;5.80;1.95;;;;;;;16.22;63.77;100161.59;2082653;28;20045;-71
2023/07/04 02:55:14;;;;;;;4.63;1.77;;;;;;;16.26;63.67;100162.53;2090842;28;20026;-71
